sensor_id;sensor_type;location;lat;lon;timestamp;P1;durP1;ratioP1;P2;durP2;ratioP2
85894;SDS011;76441;49.954;8.842;2024-02-21T00:00:54;16.08;;;5.13;;
85894;SDS011;76441;49.954;8.842;2024-02-21T00:03:20;15.15;;;5.70;;
85894;SDS011;76441;49.954;8.842;2024-02-21T00:05:45;10.83;;;5.90;;
85894;SDS011;76441;49.954;8.842;2024-02-21T00:08:10;15.47;;;5.63;;
85894;SDS011;76441;49.954;8.842;2024-02-21T00:10:36;14.32;;;6.15;;
85894;SDS011;76441;49.954;8.842;2024-02-21T00:13:01;15.27;;;5.90;;
85894;SDS011;76441;49.954;8.842;2024-02-21T00:15:26;17.17;;;5.70;;
85894;SDS011;76441;49.954;8.842;2024-02-21T00:17:52;16.77;;;6.53;;
85894;SDS011;76441;49.954;8.842;2024-02-21T00:20:17;15.00;;;7.17;;
85894;SDS011;76441;49.954;8.842;2024-02-21T00:22:43;14.98;;;6.50;;
85894;SDS011;76441;49.954;8.842;2024-02-21T00:25:09;18.75;;;6.72;;
85894;SDS011;76441;49.954;8.842;2024-02-21T00:27:34;16.80;;;6.78;;
85894;SDS011;76441;49.954;8.842;2024-02-21T00:30:00;20.55;;;7.50;;
85894;SDS011;76441;49.954;8.842;2024-02-21T00:32:25;16.42;;;7.20;;
85894;SDS011;76441;49.954;8.842;2024-02-21T00:34:50;16.23;;;7.60;;
85894;SDS011;76441;49.954;8.842;2024-02-21T00:37:15;19.23;;;7.40;;
85894;SDS011;76441;49.954;8.842;2024-02-21T00:39:41;17.10;;;8.32;;
85894;SDS011;76441;49.954;8.842;2024-02-21T00:42:07;22.77;;;7.95;;
85894;SDS011;76441;49.954;8.842;2024-02-21T00:44:32;21.27;;;8.77;;
85894;SDS011;76441;49.954;8.842;2024-02-21T00:46:58;15.73;;;8.00;;
85894;SDS011;76441;49.954;8.842;2024-02-21T00:49:23;20.60;;;8.15;;
85894;SDS011;76441;49.954;8.842;2024-02-21T00:51:48;20.93;;;8.27;;
85894;SDS011;76441;49.954;8.842;2024-02-21T00:54:13;26.90;;;8.77;;
85894;SDS011;76441;49.954;8.842;2024-02-21T00:56:39;19.67;;;8.50;;
85894;SDS011;76441;49.954;8.842;2024-02-21T00:59:04;19.45;;;8.05;;
85894;SDS011;76441;49.954;8.842;2024-02-21T01:01:29;18.40;;;8.60;;
85894;SDS011;76441;49.954;8.842;2024-02-21T01:03:55;16.73;;;8.17;;
85894;SDS011;76441;49.954;8.842;2024-02-21T01:06:20;28.83;;;8.70;;
85894;SDS011;76441;49.954;8.842;2024-02-21T01:08:46;18.15;;;7.15;;
85894;SDS011;76441;49.954;8.842;2024-02-21T01:11:12;21.33;;;9.10;;
85894;SDS011;76441;49.954;8.842;2024-02-21T01:13:38;21.77;;;9.13;;
85894;SDS011;76441;49.954;8.842;2024-02-21T01:16:03;20.17;;;8.60;;
85894;SDS011;76441;49.954;8.842;2024-02-21T01:18:29;20.45;;;9.02;;
85894;SDS011;76441;49.954;8.842;2024-02-21T01:20:54;14.17;;;8.07;;
85894;SDS011;76441;49.954;8.842;2024-02-21T01:23:20;21.73;;;9.33;;
85894;SDS011;76441;49.954;8.842;2024-02-21T01:25:45;16.00;;;7.93;;
85894;SDS011;76441;49.954;8.842;2024-02-21T01:28:10;16.95;;;8.90;;
85894;SDS011;76441;49.954;8.842;2024-02-21T01:30:35;21.27;;;9.27;;
85894;SDS011;76441;49.954;8.842;2024-02-21T01:33:01;22.97;;;7.60;;
85894;SDS011;76441;49.954;8.842;2024-02-21T01:35:26;28.23;;;9.55;;
85894;SDS011;76441;49.954;8.842;2024-02-21T01:37:51;18.38;;;8.45;;
85894;SDS011;76441;49.954;8.842;2024-02-21T01:40:17;19.00;;;8.30;;
85894;SDS011;76441;49.954;8.842;2024-02-21T01:42:42;21.90;;;8.80;;
85894;SDS011;76441;49.954;8.842;2024-02-21T01:45:07;22.67;;;8.80;;
85894;SDS011;76441;49.954;8.842;2024-02-21T01:47:33;20.00;;;7.55;;
85894;SDS011;76441;49.954;8.842;2024-02-21T01:49:59;21.48;;;8.02;;
85894;SDS011;76441;49.954;8.842;2024-02-21T01:52:26;21.13;;;7.88;;
85894;SDS011;76441;49.954;8.842;2024-02-21T01:54:52;11.55;;;7.72;;
85894;SDS011;76441;49.954;8.842;2024-02-21T01:57:17;20.60;;;8.60;;
85894;SDS011;76441;49.954;8.842;2024-02-21T01:59:43;16.70;;;7.30;;
85894;SDS011;76441;49.954;8.842;2024-02-21T02:02:08;20.02;;;7.82;;
85894;SDS011;76441;49.954;8.842;2024-02-21T02:04:33;18.15;;;6.95;;
85894;SDS011;76441;49.954;8.842;2024-02-21T02:06:59;16.13;;;6.93;;
85894;SDS011;76441;49.954;8.842;2024-02-21T02:09:27;14.68;;;8.02;;
85894;SDS011;76441;49.954;8.842;2024-02-21T02:11:52;19.23;;;6.53;;
85894;SDS011;76441;49.954;8.842;2024-02-21T02:14:18;15.68;;;7.07;;
85894;SDS011;76441;49.954;8.842;2024-02-21T02:16:45;19.03;;;7.63;;
85894;SDS011;76441;49.954;8.842;2024-02-21T02:19:12;21.00;;;9.00;;
85894;SDS011;76441;49.954;8.842;2024-02-21T02:21:39;16.95;;;7.60;;
85894;SDS011;76441;49.954;8.842;2024-02-21T02:24:06;16.10;;;7.15;;
85894;SDS011;76441;49.954;8.842;2024-02-21T02:26:32;18.02;;;6.90;;
85894;SDS011;76441;49.954;8.842;2024-02-21T02:28:57;19.60;;;8.80;;
85894;SDS011;76441;49.954;8.842;2024-02-21T02:31:22;17.83;;;8.03;;
85894;SDS011;76441;49.954;8.842;2024-02-21T02:33:48;18.17;;;7.80;;
85894;SDS011;76441;49.954;8.842;2024-02-21T02:36:13;21.13;;;8.55;;
85894;SDS011;76441;49.954;8.842;2024-02-21T02:38:39;22.00;;;8.10;;
85894;SDS011;76441;49.954;8.842;2024-02-21T02:41:04;19.52;;;7.72;;
85894;SDS011;76441;49.954;8.842;2024-02-21T02:43:29;17.48;;;7.57;;
85894;SDS011;76441;49.954;8.842;2024-02-21T02:45:54;27.07;;;8.40;;
85894;SDS011;76441;49.954;8.842;2024-02-21T02:48:20;19.45;;;8.45;;
85894;SDS011;76441;49.954;8.842;2024-02-21T02:50:46;19.05;;;8.00;;
85894;SDS011;76441;49.954;8.842;2024-02-21T02:53:11;17.35;;;8.20;;
85894;SDS011;76441;49.954;8.842;2024-02-21T02:55:37;23.67;;;8.70;;
85894;SDS011;76441;49.954;8.842;2024-02-21T02:58:02;17.73;;;8.25;;
85894;SDS011;76441;49.954;8.842;2024-02-21T03:00:28;15.60;;;8.07;;
85894;SDS011;76441;49.954;8.842;2024-02-21T03:02:53;20.98;;;8.32;;
85894;SDS011;76441;49.954;8.842;2024-02-21T03:05:19;20.50;;;9.07;;
85894;SDS011;76441;49.954;8.842;2024-02-21T03:07:46;20.35;;;8.50;;
85894;SDS011;76441;49.954;8.842;2024-02-21T03:10:12;19.38;;;8.50;;
85894;SDS011;76441;49.954;8.842;2024-02-21T03:12:38;18.20;;;7.43;;
85894;SDS011;76441;49.954;8.842;2024-02-21T03:15:04;20.23;;;7.88;;
85894;SDS011;76441;49.954;8.842;2024-02-21T03:17:30;15.02;;;8.00;;
85894;SDS011;76441;49.954;8.842;2024-02-21T03:19:57;16.08;;;7.50;;
85894;SDS011;76441;49.954;8.842;2024-02-21T03:22:22;20.65;;;7.82;;
85894;SDS011;76441;49.954;8.842;2024-02-21T03:24:48;15.70;;;7.00;;
85894;SDS011;76441;49.954;8.842;2024-02-21T03:27:13;26.70;;;8.30;;
85894;SDS011;76441;49.954;8.842;2024-02-21T03:29:38;17.92;;;7.68;;
85894;SDS011;76441;49.954;8.842;2024-02-21T03:32:04;15.52;;;7.35;;
85894;SDS011;76441;49.954;8.842;2024-02-21T03:34:29;20.60;;;8.25;;
85894;SDS011;76441;49.954;8.842;2024-02-21T03:36:54;16.42;;;7.07;;
85894;SDS011;76441;49.954;8.842;2024-02-21T03:39:20;20.10;;;8.60;;
85894;SDS011;76441;49.954;8.842;2024-02-21T03:41:46;22.30;;;8.07;;
85894;SDS011;76441;49.954;8.842;2024-02-21T03:44:11;21.38;;;8.65;;
85894;SDS011;76441;49.954;8.842;2024-02-21T03:46:37;21.70;;;8.13;;
85894;SDS011;76441;49.954;8.842;2024-02-21T03:49:02;17.97;;;7.27;;
85894;SDS011;76441;49.954;8.842;2024-02-21T03:51:27;22.73;;;8.82;;
85894;SDS011;76441;49.954;8.842;2024-02-21T03:53:52;15.90;;;7.40;;
85894;SDS011;76441;49.954;8.842;2024-02-21T03:56:18;21.40;;;7.40;;
85894;SDS011;76441;49.954;8.842;2024-02-21T03:58:43;14.38;;;7.60;;
85894;SDS011;76441;49.954;8.842;2024-02-21T04:01:08;29.42;;;11.90;;
85894;SDS011;76441;49.954;8.842;2024-02-21T04:03:34;24.50;;;9.10;;
85894;SDS011;76441;49.954;8.842;2024-02-21T04:05:59;14.18;;;7.50;;
85894;SDS011;76441;49.954;8.842;2024-02-21T04:08:25;16.48;;;8.00;;
85894;SDS011;76441;49.954;8.842;2024-02-21T04:10:50;16.00;;;7.95;;
85894;SDS011;76441;49.954;8.842;2024-02-21T04:13:16;18.70;;;7.88;;
85894;SDS011;76441;49.954;8.842;2024-02-21T04:15:41;16.83;;;8.23;;
85894;SDS011;76441;49.954;8.842;2024-02-21T04:18:06;17.85;;;8.10;;
85894;SDS011;76441;49.954;8.842;2024-02-21T04:20:31;16.85;;;7.20;;
85894;SDS011;76441;49.954;8.842;2024-02-21T04:22:57;18.52;;;7.75;;
85894;SDS011;76441;49.954;8.842;2024-02-21T04:25:23;16.60;;;7.97;;
85894;SDS011;76441;49.954;8.842;2024-02-21T04:27:48;21.48;;;8.90;;
85894;SDS011;76441;49.954;8.842;2024-02-21T04:30:13;14.80;;;8.23;;
85894;SDS011;76441;49.954;8.842;2024-02-21T04:32:39;15.88;;;8.75;;
85894;SDS011;76441;49.954;8.842;2024-02-21T04:35:05;18.02;;;7.68;;
85894;SDS011;76441;49.954;8.842;2024-02-21T04:37:32;14.00;;;7.15;;
85894;SDS011;76441;49.954;8.842;2024-02-21T04:39:57;19.27;;;9.23;;
85894;SDS011;76441;49.954;8.842;2024-02-21T04:42:22;17.80;;;7.53;;
85894;SDS011;76441;49.954;8.842;2024-02-21T04:44:48;21.73;;;8.30;;
85894;SDS011;76441;49.954;8.842;2024-02-21T04:47:13;18.33;;;8.47;;
85894;SDS011;76441;49.954;8.842;2024-02-21T04:49:38;19.88;;;9.40;;
85894;SDS011;76441;49.954;8.842;2024-02-21T04:52:04;20.05;;;8.43;;
85894;SDS011;76441;49.954;8.842;2024-02-21T04:54:29;16.85;;;7.22;;
85894;SDS011;76441;49.954;8.842;2024-02-21T04:56:54;15.80;;;9.23;;
85894;SDS011;76441;49.954;8.842;2024-02-21T04:59:20;19.40;;;7.97;;
85894;SDS011;76441;49.954;8.842;2024-02-21T05:01:45;16.88;;;8.10;;
85894;SDS011;76441;49.954;8.842;2024-02-21T05:04:10;25.15;;;8.57;;
85894;SDS011;76441;49.954;8.842;2024-02-21T05:06:41;16.77;;;7.45;;
85894;SDS011;76441;49.954;8.842;2024-02-21T05:09:07;14.60;;;7.18;;
85894;SDS011;76441;49.954;8.842;2024-02-21T05:11:33;15.15;;;8.38;;
85894;SDS011;76441;49.954;8.842;2024-02-21T05:13:59;16.45;;;8.20;;
85894;SDS011;76441;49.954;8.842;2024-02-21T05:16:24;13.57;;;7.57;;
85894;SDS011;76441;49.954;8.842;2024-02-21T05:18:49;20.97;;;7.90;;
85894;SDS011;76441;49.954;8.842;2024-02-21T05:21:15;16.43;;;8.07;;
85894;SDS011;76441;49.954;8.842;2024-02-21T05:23:40;15.13;;;7.57;;
85894;SDS011;76441;49.954;8.842;2024-02-21T05:26:06;14.53;;;7.90;;
85894;SDS011;76441;49.954;8.842;2024-02-21T05:28:31;18.75;;;8.23;;
85894;SDS011;76441;49.954;8.842;2024-02-21T05:30:57;15.88;;;6.80;;
85894;SDS011;76441;49.954;8.842;2024-02-21T05:33:23;17.88;;;7.88;;
85894;SDS011;76441;49.954;8.842;2024-02-21T05:35:48;15.57;;;7.68;;
85894;SDS011;76441;49.954;8.842;2024-02-21T05:38:14;13.43;;;6.80;;
85894;SDS011;76441;49.954;8.842;2024-02-21T05:40:39;24.17;;;8.18;;
85894;SDS011;76441;49.954;8.842;2024-02-21T05:43:05;17.77;;;8.10;;
85894;SDS011;76441;49.954;8.842;2024-02-21T05:45:32;15.32;;;7.38;;
85894;SDS011;76441;49.954;8.842;2024-02-21T05:47:57;19.27;;;7.40;;
85894;SDS011;76441;49.954;8.842;2024-02-21T05:50:22;16.07;;;7.23;;
85894;SDS011;76441;49.954;8.842;2024-02-21T05:52:48;17.13;;;8.18;;
85894;SDS011;76441;49.954;8.842;2024-02-21T05:55:16;14.88;;;7.10;;
85894;SDS011;76441;49.954;8.842;2024-02-21T05:57:42;18.95;;;7.60;;
85894;SDS011;76441;49.954;8.842;2024-02-21T06:00:07;18.83;;;8.05;;
85894;SDS011;76441;49.954;8.842;2024-02-21T06:02:33;15.85;;;6.78;;
85894;SDS011;76441;49.954;8.842;2024-02-21T06:04:58;17.23;;;6.88;;
85894;SDS011;76441;49.954;8.842;2024-02-21T06:07:23;14.00;;;6.47;;
85894;SDS011;76441;49.954;8.842;2024-02-21T06:09:48;16.07;;;7.43;;
85894;SDS011;76441;49.954;8.842;2024-02-21T06:12:14;16.20;;;7.40;;
85894;SDS011;76441;49.954;8.842;2024-02-21T06:14:39;12.30;;;6.80;;
85894;SDS011;76441;49.954;8.842;2024-02-21T06:17:04;14.02;;;6.90;;
85894;SDS011;76441;49.954;8.842;2024-02-21T06:19:29;15.87;;;5.93;;
85894;SDS011;76441;49.954;8.842;2024-02-21T06:21:55;12.15;;;6.40;;
85894;SDS011;76441;49.954;8.842;2024-02-21T06:24:20;12.32;;;6.47;;
85894;SDS011;76441;49.954;8.842;2024-02-21T06:26:45;17.02;;;6.47;;
85894;SDS011;76441;49.954;8.842;2024-02-21T06:29:11;14.77;;;6.03;;
85894;SDS011;76441;49.954;8.842;2024-02-21T06:31:36;12.20;;;5.40;;
85894;SDS011;76441;49.954;8.842;2024-02-21T06:34:02;17.10;;;6.20;;
85894;SDS011;76441;49.954;8.842;2024-02-21T06:36:27;11.82;;;5.85;;
85894;SDS011;76441;49.954;8.842;2024-02-21T06:38:53;11.15;;;5.75;;
85894;SDS011;76441;49.954;8.842;2024-02-21T06:41:18;14.00;;;5.28;;
85894;SDS011;76441;49.954;8.842;2024-02-21T06:43:44;14.25;;;4.88;;
85894;SDS011;76441;49.954;8.842;2024-02-21T06:46:11;14.48;;;5.38;;
85894;SDS011;76441;49.954;8.842;2024-02-21T06:48:36;16.70;;;6.47;;
85894;SDS011;76441;49.954;8.842;2024-02-21T06:51:02;12.52;;;5.53;;
85894;SDS011;76441;49.954;8.842;2024-02-21T06:53:28;13.20;;;5.90;;
85894;SDS011;76441;49.954;8.842;2024-02-21T06:55:53;15.38;;;5.35;;
85894;SDS011;76441;49.954;8.842;2024-02-21T06:58:18;14.93;;;6.50;;
85894;SDS011;76441;49.954;8.842;2024-02-21T07:00:44;14.33;;;6.77;;
85894;SDS011;76441;49.954;8.842;2024-02-21T07:03:09;17.77;;;6.18;;
85894;SDS011;76441;49.954;8.842;2024-02-21T07:05:34;17.25;;;6.03;;
85894;SDS011;76441;49.954;8.842;2024-02-21T07:08:00;13.70;;;5.97;;
85894;SDS011;76441;49.954;8.842;2024-02-21T07:10:25;14.35;;;5.63;;
85894;SDS011;76441;49.954;8.842;2024-02-21T07:12:50;14.02;;;6.22;;
85894;SDS011;76441;49.954;8.842;2024-02-21T07:15:17;13.05;;;5.68;;
85894;SDS011;76441;49.954;8.842;2024-02-21T07:17:45;11.00;;;5.50;;
85894;SDS011;76441;49.954;8.842;2024-02-21T07:20:10;13.25;;;5.05;;
85894;SDS011;76441;49.954;8.842;2024-02-21T07:22:36;13.77;;;5.13;;
85894;SDS011;76441;49.954;8.842;2024-02-21T07:25:01;12.10;;;5.17;;
85894;SDS011;76441;49.954;8.842;2024-02-21T07:27:26;16.13;;;5.55;;
85894;SDS011;76441;49.954;8.842;2024-02-21T07:29:55;13.70;;;5.55;;
85894;SDS011;76441;49.954;8.842;2024-02-21T07:32:21;10.50;;;5.10;;
85894;SDS011;76441;49.954;8.842;2024-02-21T07:34:46;15.82;;;6.05;;
85894;SDS011;76441;49.954;8.842;2024-02-21T07:37:11;16.33;;;6.83;;
85894;SDS011;76441;49.954;8.842;2024-02-21T07:39:36;12.33;;;5.97;;
85894;SDS011;76441;49.954;8.842;2024-02-21T07:42:02;14.27;;;5.68;;
85894;SDS011;76441;49.954;8.842;2024-02-21T07:44:27;15.60;;;6.53;;
85894;SDS011;76441;49.954;8.842;2024-02-21T07:46:53;9.33;;;5.00;;
85894;SDS011;76441;49.954;8.842;2024-02-21T07:49:18;11.38;;;4.82;;
85894;SDS011;76441;49.954;8.842;2024-02-21T07:51:43;20.33;;;6.07;;
85894;SDS011;76441;49.954;8.842;2024-02-21T07:54:09;16.60;;;5.50;;
85894;SDS011;76441;49.954;8.842;2024-02-21T07:56:34;15.37;;;5.10;;
85894;SDS011;76441;49.954;8.842;2024-02-21T07:58:59;12.90;;;5.45;;
85894;SDS011;76441;49.954;8.842;2024-02-21T08:01:24;11.88;;;4.72;;
85894;SDS011;76441;49.954;8.842;2024-02-21T08:03:50;9.18;;;5.18;;
85894;SDS011;76441;49.954;8.842;2024-02-21T08:06:18;11.38;;;4.80;;
85894;SDS011;76441;49.954;8.842;2024-02-21T08:08:44;14.87;;;4.80;;
85894;SDS011;76441;49.954;8.842;2024-02-21T08:11:09;12.60;;;4.57;;
85894;SDS011;76441;49.954;8.842;2024-02-21T08:13:34;12.02;;;4.95;;
85894;SDS011;76441;49.954;8.842;2024-02-21T08:15:59;10.27;;;4.83;;
85894;SDS011;76441;49.954;8.842;2024-02-21T08:18:25;9.32;;;4.25;;
85894;SDS011;76441;49.954;8.842;2024-02-21T08:20:50;11.23;;;4.60;;
85894;SDS011;76441;49.954;8.842;2024-02-21T08:23:15;11.20;;;5.07;;
85894;SDS011;76441;49.954;8.842;2024-02-21T08:25:41;11.57;;;4.68;;
85894;SDS011;76441;49.954;8.842;2024-02-21T08:28:06;11.38;;;5.10;;
85894;SDS011;76441;49.954;8.842;2024-02-21T08:30:33;10.55;;;4.90;;
85894;SDS011;76441;49.954;8.842;2024-02-21T08:32:58;15.40;;;4.95;;
85894;SDS011;76441;49.954;8.842;2024-02-21T08:35:23;13.17;;;5.07;;
85894;SDS011;76441;49.954;8.842;2024-02-21T08:37:49;17.35;;;5.30;;
85894;SDS011;76441;49.954;8.842;2024-02-21T08:40:14;9.10;;;4.65;;
85894;SDS011;76441;49.954;8.842;2024-02-21T08:42:42;12.82;;;4.60;;
85894;SDS011;76441;49.954;8.842;2024-02-21T08:45:09;12.20;;;4.63;;
85894;SDS011;76441;49.954;8.842;2024-02-21T08:47:34;9.60;;;4.10;;
85894;SDS011;76441;49.954;8.842;2024-02-21T08:50:01;8.85;;;4.63;;
85894;SDS011;76441;49.954;8.842;2024-02-21T08:52:26;9.18;;;5.55;;
85894;SDS011;76441;49.954;8.842;2024-02-21T08:54:52;12.02;;;4.90;;
85894;SDS011;76441;49.954;8.842;2024-02-21T08:57:18;13.18;;;4.20;;
85894;SDS011;76441;49.954;8.842;2024-02-21T08:59:44;14.52;;;4.72;;
85894;SDS011;76441;49.954;8.842;2024-02-21T09:02:10;7.57;;;4.07;;
85894;SDS011;76441;49.954;8.842;2024-02-21T09:04:35;16.37;;;5.03;;
85894;SDS011;76441;49.954;8.842;2024-02-21T09:07:00;11.20;;;4.47;;
85894;SDS011;76441;49.954;8.842;2024-02-21T09:09:26;10.68;;;4.28;;
85894;SDS011;76441;49.954;8.842;2024-02-21T09:11:53;10.25;;;3.88;;
85894;SDS011;76441;49.954;8.842;2024-02-21T09:14:18;14.43;;;4.38;;
85894;SDS011;76441;49.954;8.842;2024-02-21T09:16:43;12.73;;;4.13;;
85894;SDS011;76441;49.954;8.842;2024-02-21T09:19:09;11.52;;;4.40;;
85894;SDS011;76441;49.954;8.842;2024-02-21T09:21:36;8.77;;;4.80;;
85894;SDS011;76441;49.954;8.842;2024-02-21T09:24:02;8.45;;;3.72;;
85894;SDS011;76441;49.954;8.842;2024-02-21T09:26:28;8.50;;;3.88;;
85894;SDS011;76441;49.954;8.842;2024-02-21T09:28:53;11.98;;;4.20;;
85894;SDS011;76441;49.954;8.842;2024-02-21T09:31:19;11.32;;;4.38;;
85894;SDS011;76441;49.954;8.842;2024-02-21T09:33:44;13.13;;;4.35;;
85894;SDS011;76441;49.954;8.842;2024-02-21T09:36:10;10.70;;;4.15;;
85894;SDS011;76441;49.954;8.842;2024-02-21T09:38:35;12.18;;;4.07;;
85894;SDS011;76441;49.954;8.842;2024-02-21T09:41:08;8.30;;;4.05;;
85894;SDS011;76441;49.954;8.842;2024-02-21T09:43:41;8.48;;;3.95;;
85894;SDS011;76441;49.954;8.842;2024-02-21T09:46:07;13.18;;;3.75;;
85894;SDS011;76441;49.954;8.842;2024-02-21T09:48:40;11.88;;;4.43;;
85894;SDS011;76441;49.954;8.842;2024-02-21T09:51:19;9.35;;;4.53;;
85894;SDS011;76441;49.954;8.842;2024-02-21T09:53:46;14.32;;;4.90;;
85894;SDS011;76441;49.954;8.842;2024-02-21T09:56:13;8.25;;;4.30;;
85894;SDS011;76441;49.954;8.842;2024-02-21T09:58:39;13.02;;;4.95;;
85894;SDS011;76441;49.954;8.842;2024-02-21T10:01:06;9.10;;;4.55;;
85894;SDS011;76441;49.954;8.842;2024-02-21T10:03:31;8.50;;;4.70;;
85894;SDS011;76441;49.954;8.842;2024-02-21T10:05:58;9.23;;;4.32;;
85894;SDS011;76441;49.954;8.842;2024-02-21T10:08:25;12.20;;;4.38;;
85894;SDS011;76441;49.954;8.842;2024-02-21T10:10:51;15.05;;;5.50;;
85894;SDS011;76441;49.954;8.842;2024-02-21T10:13:26;10.73;;;4.70;;
85894;SDS011;76441;49.954;8.842;2024-02-21T10:16:05;12.02;;;5.07;;
85894;SDS011;76441;49.954;8.842;2024-02-21T10:18:34;7.60;;;4.60;;
85894;SDS011;76441;49.954;8.842;2024-02-21T10:21:00;9.40;;;5.15;;
85894;SDS011;76441;49.954;8.842;2024-02-21T10:23:29;15.13;;;5.50;;
85894;SDS011;76441;49.954;8.842;2024-02-21T10:26:04;9.52;;;4.78;;
85894;SDS011;76441;49.954;8.842;2024-02-21T10:28:30;16.88;;;5.72;;
85894;SDS011;76441;49.954;8.842;2024-02-21T10:30:55;10.48;;;4.20;;
85894;SDS011;76441;49.954;8.842;2024-02-21T10:33:20;8.47;;;4.30;;
85894;SDS011;76441;49.954;8.842;2024-02-21T10:35:46;7.70;;;4.40;;
85894;SDS011;76441;49.954;8.842;2024-02-21T10:38:11;9.63;;;4.70;;
85894;SDS011;76441;49.954;8.842;2024-02-21T10:40:37;13.20;;;5.27;;
85894;SDS011;76441;49.954;8.842;2024-02-21T10:43:02;12.03;;;4.40;;
85894;SDS011;76441;49.954;8.842;2024-02-21T10:45:30;12.20;;;5.40;;
85894;SDS011;76441;49.954;8.842;2024-02-21T10:48:06;10.77;;;3.95;;
85894;SDS011;76441;49.954;8.842;2024-02-21T10:51:18;8.93;;;3.88;;
85894;SDS011;76441;49.954;8.842;2024-02-21T10:56:29;12.90;;;4.32;;
85894;SDS011;76441;49.954;8.842;2024-02-21T10:58:59;14.32;;;5.13;;
85894;SDS011;76441;49.954;8.842;2024-02-21T11:01:25;9.40;;;4.18;;
85894;SDS011;76441;49.954;8.842;2024-02-21T11:03:55;9.52;;;3.67;;
85894;SDS011;76441;49.954;8.842;2024-02-21T11:06:22;9.05;;;4.22;;
85894;SDS011;76441;49.954;8.842;2024-02-21T11:08:48;10.35;;;4.20;;
85894;SDS011;76441;49.954;8.842;2024-02-21T11:11:34;14.38;;;5.18;;
85894;SDS011;76441;49.954;8.842;2024-02-21T11:14:03;11.90;;;4.60;;
85894;SDS011;76441;49.954;8.842;2024-02-21T11:16:43;9.43;;;4.57;;
85894;SDS011;76441;49.954;8.842;2024-02-21T11:19:09;11.63;;;4.60;;
85894;SDS011;76441;49.954;8.842;2024-02-21T11:21:47;14.30;;;4.78;;
85894;SDS011;76441;49.954;8.842;2024-02-21T11:24:13;11.52;;;5.18;;
85894;SDS011;76441;49.954;8.842;2024-02-21T11:26:39;17.80;;;5.30;;
85894;SDS011;76441;49.954;8.842;2024-02-21T11:29:07;9.93;;;5.38;;
85894;SDS011;76441;49.954;8.842;2024-02-21T11:31:38;13.40;;;5.30;;
85894;SDS011;76441;49.954;8.842;2024-02-21T11:34:11;11.27;;;4.70;;
85894;SDS011;76441;49.954;8.842;2024-02-21T11:36:46;9.73;;;4.55;;
85894;SDS011;76441;49.954;8.842;2024-02-21T11:39:22;10.35;;;4.80;;
85894;SDS011;76441;49.954;8.842;2024-02-21T11:42:05;7.22;;;4.68;;
85894;SDS011;76441;49.954;8.842;2024-02-21T11:44:35;10.38;;;4.13;;
85894;SDS011;76441;49.954;8.842;2024-02-21T11:47:05;15.68;;;5.18;;
85894;SDS011;76441;49.954;8.842;2024-02-21T11:49:35;9.85;;;4.55;;
85894;SDS011;76441;49.954;8.842;2024-02-21T11:52:02;15.18;;;5.15;;
85894;SDS011;76441;49.954;8.842;2024-02-21T11:54:31;11.23;;;4.53;;
85894;SDS011;76441;49.954;8.842;2024-02-21T11:56:58;12.93;;;4.47;;
85894;SDS011;76441;49.954;8.842;2024-02-21T11:59:24;11.75;;;4.63;;
85894;SDS011;76441;49.954;8.842;2024-02-21T12:01:49;12.63;;;4.87;;
85894;SDS011;76441;49.954;8.842;2024-02-21T12:04:16;12.88;;;4.78;;
85894;SDS011;76441;49.954;8.842;2024-02-21T12:06:46;10.10;;;4.55;;
85894;SDS011;76441;49.954;8.842;2024-02-21T12:09:15;15.63;;;6.45;;
85894;SDS011;76441;49.954;8.842;2024-02-21T12:11:41;13.55;;;5.28;;
85894;SDS011;76441;49.954;8.842;2024-02-21T12:14:06;9.88;;;5.70;;
85894;SDS011;76441;49.954;8.842;2024-02-21T12:16:32;14.52;;;4.57;;
85894;SDS011;76441;49.954;8.842;2024-02-21T12:18:58;8.05;;;4.68;;
85894;SDS011;76441;49.954;8.842;2024-02-21T12:21:30;13.68;;;5.15;;
85894;SDS011;76441;49.954;8.842;2024-02-21T12:23:57;8.63;;;4.47;;
85894;SDS011;76441;49.954;8.842;2024-02-21T12:26:23;13.57;;;5.13;;
85894;SDS011;76441;49.954;8.842;2024-02-21T12:28:48;13.38;;;5.65;;
85894;SDS011;76441;49.954;8.842;2024-02-21T12:31:13;12.20;;;4.95;;
85894;SDS011;76441;49.954;8.842;2024-02-21T12:33:39;10.23;;;4.95;;
85894;SDS011;76441;49.954;8.842;2024-02-21T12:36:05;9.85;;;4.72;;
85894;SDS011;76441;49.954;8.842;2024-02-21T12:38:30;11.80;;;5.30;;
85894;SDS011;76441;49.954;8.842;2024-02-21T12:40:55;9.48;;;3.88;;
85894;SDS011;76441;49.954;8.842;2024-02-21T12:43:22;12.13;;;4.13;;
85894;SDS011;76441;49.954;8.842;2024-02-21T12:45:48;7.70;;;3.60;;
85894;SDS011;76441;49.954;8.842;2024-02-21T12:48:13;9.63;;;3.38;;
85894;SDS011;76441;49.954;8.842;2024-02-21T12:50:39;6.97;;;3.55;;
85894;SDS011;76441;49.954;8.842;2024-02-21T12:53:05;13.38;;;4.03;;
85894;SDS011;76441;49.954;8.842;2024-02-21T12:55:31;10.30;;;4.07;;
85894;SDS011;76441;49.954;8.842;2024-02-21T12:57:56;14.47;;;3.83;;
85894;SDS011;76441;49.954;8.842;2024-02-21T13:00:22;9.45;;;3.70;;
85894;SDS011;76441;49.954;8.842;2024-02-21T13:02:51;12.75;;;3.85;;
85894;SDS011;76441;49.954;8.842;2024-02-21T13:05:16;8.60;;;3.80;;
85894;SDS011;76441;49.954;8.842;2024-02-21T13:07:42;8.45;;;3.45;;
85894;SDS011;76441;49.954;8.842;2024-02-21T13:10:07;12.10;;;4.57;;
85894;SDS011;76441;49.954;8.842;2024-02-21T13:12:33;9.18;;;3.35;;
85894;SDS011;76441;49.954;8.842;2024-02-21T13:14:58;9.23;;;3.13;;
85894;SDS011;76441;49.954;8.842;2024-02-21T13:17:23;8.53;;;3.43;;
85894;SDS011;76441;49.954;8.842;2024-02-21T13:19:49;11.00;;;3.78;;
85894;SDS011;76441;49.954;8.842;2024-02-21T13:22:14;6.55;;;3.05;;
85894;SDS011;76441;49.954;8.842;2024-02-21T13:24:39;10.55;;;3.55;;
85894;SDS011;76441;49.954;8.842;2024-02-21T13:27:05;8.30;;;3.73;;
85894;SDS011;76441;49.954;8.842;2024-02-21T13:29:30;7.07;;;3.50;;
85894;SDS011;76441;49.954;8.842;2024-02-21T13:31:56;5.43;;;3.63;;
85894;SDS011;76441;49.954;8.842;2024-02-21T13:34:21;8.63;;;3.35;;
85894;SDS011;76441;49.954;8.842;2024-02-21T13:36:46;6.67;;;3.13;;
85894;SDS011;76441;49.954;8.842;2024-02-21T13:39:12;8.47;;;3.50;;
85894;SDS011;76441;49.954;8.842;2024-02-21T13:41:40;12.68;;;3.80;;
85894;SDS011;76441;49.954;8.842;2024-02-21T13:44:07;7.18;;;3.03;;
85894;SDS011;76441;49.954;8.842;2024-02-21T13:46:32;7.28;;;3.10;;
85894;SDS011;76441;49.954;8.842;2024-02-21T13:49:02;10.20;;;2.97;;
85894;SDS011;76441;49.954;8.842;2024-02-21T13:51:32;9.93;;;3.90;;
85894;SDS011;76441;49.954;8.842;2024-02-21T13:53:58;12.63;;;3.53;;
85894;SDS011;76441;49.954;8.842;2024-02-21T13:56:24;9.93;;;3.15;;
85894;SDS011;76441;49.954;8.842;2024-02-21T13:58:49;8.60;;;3.42;;
85894;SDS011;76441;49.954;8.842;2024-02-21T14:01:15;11.90;;;3.97;;
85894;SDS011;76441;49.954;8.842;2024-02-21T14:03:40;14.00;;;4.60;;
85894;SDS011;76441;49.954;8.842;2024-02-21T14:06:06;10.60;;;5.35;;
85894;SDS011;76441;49.954;8.842;2024-02-21T14:08:31;9.00;;;4.00;;
85894;SDS011;76441;49.954;8.842;2024-02-21T14:10:59;6.57;;;3.35;;
85894;SDS011;76441;49.954;8.842;2024-02-21T14:13:25;10.52;;;3.65;;
85894;SDS011;76441;49.954;8.842;2024-02-21T14:15:50;9.88;;;3.08;;
85894;SDS011;76441;49.954;8.842;2024-02-21T14:18:16;8.30;;;3.50;;
85894;SDS011;76441;49.954;8.842;2024-02-21T14:20:41;9.20;;;4.53;;
85894;SDS011;76441;49.954;8.842;2024-02-21T14:23:06;8.13;;;3.50;;
85894;SDS011;76441;49.954;8.842;2024-02-21T14:25:31;7.22;;;3.63;;
85894;SDS011;76441;49.954;8.842;2024-02-21T14:27:58;9.15;;;3.75;;
85894;SDS011;76441;49.954;8.842;2024-02-21T14:30:25;7.72;;;3.45;;
85894;SDS011;76441;49.954;8.842;2024-02-21T14:32:50;12.07;;;4.43;;